createdAt,value
2023-01-19T00:01:40.241Z,95997.38
2023-01-19T00:04:06.813Z,95993.25
2023-01-19T00:06:33.491Z,95995.34
2023-01-19T00:09:02.339Z,95994.69
2023-01-19T00:11:31.120Z,96001.09
2023-01-19T00:13:58.807Z,96001.22
2023-01-19T00:16:27.795Z,95997.75
2023-01-19T00:18:54.345Z,96004.31
2023-01-19T00:21:25.549Z,96002.47
2023-01-19T00:23:52.763Z,96004.31
2023-01-19T00:26:22.360Z,96002.00
2023-01-19T00:28:50.293Z,96004.13
2023-01-19T00:31:17.016Z,96012.44
2023-01-19T00:33:48.870Z,96016.88
2023-01-19T00:36:17.660Z,96013.94
2023-01-19T00:38:44.198Z,96015.66
2023-01-19T00:41:10.780Z,96013.00
2023-01-19T00:43:37.327Z,96009.56
2023-01-19T00:46:06.559Z,96008.47
2023-01-19T00:48:37.907Z,96020.22
2023-01-19T00:51:04.762Z,96013.34
2023-01-19T00:53:32.560Z,96011.44
2023-01-19T00:56:03.899Z,96020.88
2023-01-19T00:58:32.703Z,96029.28
2023-01-19T01:01:03.924Z,96027.22
2023-01-19T01:03:32.808Z,96028.63
2023-01-19T01:05:59.564Z,96029.06
2023-01-19T01:08:26.203Z,96033.25
2023-01-19T01:10:52.804Z,96031.72
2023-01-19T01:13:22.504Z,96033.97
2023-01-19T01:15:54.791Z,96036.94
2023-01-19T01:18:24.208Z,96033.88
2023-01-19T01:20:51.329Z,96040.66
2023-01-19T01:23:22.868Z,96038.75
2023-01-19T01:25:49.621Z,96037.06
2023-01-19T01:28:16.138Z,96043.09
2023-01-19T01:30:47.581Z,96043.56
2023-01-19T01:33:16.351Z,96042.03
2023-01-19T01:36:05.129Z,96049.56
2023-01-19T01:38:31.773Z,96052.28
2023-01-19T01:41:00.670Z,96049.53
2023-01-19T01:43:48.600Z,96052.56
2023-01-19T01:46:20.029Z,96054.00
2023-01-19T01:48:54.327Z,96047.84
2023-01-19T01:51:37.288Z,96050.75
2023-01-19T01:54:12.938Z,96054.59
2023-01-19T01:56:45.644Z,96057.03
2023-01-19T01:59:26.156Z,96063.50
2023-01-19T02:02:14.464Z,96059.47
2023-01-19T02:04:50.387Z,96058.38
2023-01-19T02:07:45.256Z,96060.31
2023-01-19T02:10:30.604Z,96061.50
2023-01-19T02:13:16.248Z,96057.66
2023-01-19T02:15:42.802Z,96053.13
2023-01-19T02:18:11.721Z,96061.97
2023-01-19T02:20:40.834Z,96065.13
2023-01-19T02:23:16.587Z,96062.75
2023-01-19T02:25:43.230Z,96061.16
2023-01-19T02:28:10.944Z,96057.09
2023-01-19T02:30:40.908Z,96063.97
2023-01-19T02:33:09.764Z,96061.13
2023-01-19T02:35:40.547Z,96053.44
2023-01-19T02:38:11.176Z,96062.59
2023-01-19T02:40:40.190Z,96061.91
2023-01-19T02:43:09.471Z,96059.19
2023-01-19T02:45:37.742Z,96062.72
2023-01-19T02:48:07.732Z,96070.22
2023-01-19T02:50:50.590Z,96072.09
2023-01-19T02:53:38.546Z,96073.31
2023-01-19T02:56:13.945Z,96075.59
2023-01-19T02:58:49.626Z,96078.66
2023-01-19T03:01:26.131Z,96074.44
2023-01-19T03:04:01.647Z,96072.34
2023-01-19T03:06:57.213Z,96078.41
2023-01-19T03:09:43.318Z,96084.19
2023-01-19T03:12:32.427Z,96086.06
2023-01-19T03:15:05.928Z,96084.41
2023-01-19T03:17:36.170Z,96080.28
2023-01-19T03:20:06.798Z,96090.59
2023-01-19T03:22:38.303Z,96083.69
2023-01-19T03:25:10.350Z,96090.00
2023-01-19T03:27:40.979Z,96099.88
2023-01-19T03:30:22.233Z,96092.69
2023-01-19T03:32:56.652Z,96091.66
2023-01-19T03:35:26.258Z,96093.75
2023-01-19T03:37:56.019Z,96091.03
2023-01-19T03:40:28.975Z,96092.91
2023-01-19T03:42:56.569Z,96096.41
2023-01-19T03:45:26.099Z,96094.38
2023-01-19T03:47:56.375Z,96098.53
2023-01-19T03:50:32.194Z,96082.44
2023-01-19T03:53:10.037Z,96093.91
2023-01-19T03:55:38.550Z,96091.03
2023-01-19T03:58:05.305Z,96093.34
2023-01-19T04:00:32.445Z,96098.00
2023-01-19T04:02:59.428Z,96102.88
2023-01-19T04:05:30.927Z,96099.97
2023-01-19T04:08:00.739Z,96100.53
2023-01-19T04:10:30.319Z,96101.72
2023-01-19T04:13:03.232Z,96102.88
2023-01-19T04:15:32.949Z,96108.34
2023-01-19T04:18:02.910Z,96105.41
2023-01-19T04:20:29.568Z,96109.88
2023-01-19T04:23:01.137Z,96110.06
2023-01-19T04:25:31.680Z,96115.03
2023-01-19T04:27:58.444Z,96112.38
2023-01-19T04:30:27.816Z,96111.00
2023-01-19T04:32:55.526Z,96116.44
2023-01-19T04:35:24.882Z,96121.16
2023-01-19T04:37:51.579Z,96119.63
2023-01-19T04:40:20.928Z,96126.13
2023-01-19T04:42:47.490Z,96125.44
2023-01-19T04:45:17.472Z,96139.00
2023-01-19T04:47:44.097Z,96136.75
2023-01-19T04:50:11.439Z,96140.47
2023-01-19T04:52:42.476Z,96135.22
2023-01-19T04:55:12.845Z,96133.75
2023-01-19T04:57:39.485Z,96141.34
2023-01-19T05:00:07.195Z,96129.19
2023-01-19T05:02:36.748Z,96138.09
2023-01-19T05:05:06.072Z,96137.88
2023-01-19T05:07:32.680Z,96132.59
2023-01-19T05:09:59.319Z,96144.66
2023-01-19T05:12:25.892Z,96141.72
2023-01-19T05:14:52.493Z,96148.66
2023-01-19T05:17:21.198Z,96140.81
2023-01-19T05:19:48.879Z,96153.59
2023-01-19T05:22:19.227Z,96159.56
2023-01-19T05:24:45.799Z,96154.97
2023-01-19T05:27:12.641Z,96156.38
2023-01-19T05:29:39.173Z,96159.75
2023-01-19T05:32:08.102Z,96154.84
2023-01-19T05:34:34.739Z,96165.38
2023-01-19T05:37:03.817Z,96156.50
2023-01-19T05:39:34.048Z,96147.94
2023-01-19T05:42:00.661Z,96158.19
2023-01-19T05:44:27.181Z,96157.47
2023-01-19T05:46:53.862Z,96156.44
2023-01-19T05:49:20.463Z,96163.22
2023-01-19T05:51:49.503Z,96161.84
2023-01-19T05:54:18.765Z,96160.69
2023-01-19T05:56:45.667Z,96161.75
2023-01-19T05:59:15.312Z,96177.31
2023-01-19T06:01:42.010Z,96172.28
2023-01-19T06:04:10.985Z,96171.94
2023-01-19T06:06:42.275Z,96177.25
2023-01-19T06:09:11.394Z,96184.56
2023-01-19T06:11:37.961Z,96190.28
2023-01-19T06:14:07.000Z,96187.00
2023-01-19T06:16:33.659Z,96197.69
2023-01-19T06:19:00.353Z,96184.34
2023-01-19T06:21:32.681Z,96192.81
2023-01-19T06:24:01.539Z,96197.34
2023-01-19T06:26:30.430Z,96202.22
2023-01-19T06:28:59.399Z,96205.44
2023-01-19T06:31:26.038Z,96214.53
2023-01-19T06:33:55.121Z,96212.59
2023-01-19T06:36:21.680Z,96217.53
2023-01-19T06:38:50.773Z,96223.59
2023-01-19T06:41:19.996Z,96228.22
2023-01-19T06:43:51.739Z,96225.63
2023-01-19T06:46:18.273Z,96229.88
2023-01-19T06:48:49.550Z,96226.63
2023-01-19T06:51:16.127Z,96230.06
2023-01-19T06:53:42.699Z,96229.75
2023-01-19T06:56:09.703Z,96225.38
2023-01-19T06:58:36.883Z,96231.81
2023-01-19T07:01:05.205Z,96226.19
2023-01-19T07:03:34.835Z,96234.16
2023-01-19T07:06:02.553Z,96235.72
2023-01-19T07:08:32.668Z,96239.81
2023-01-19T07:11:26.541Z,96240.16
2023-01-19T07:13:57.128Z,96240.13
2023-01-19T07:16:30.962Z,96240.88
2023-01-19T07:18:57.528Z,96242.97
2023-01-19T07:21:29.128Z,96248.28
2023-01-19T07:24:00.637Z,96246.06
2023-01-19T07:26:28.027Z,96241.00
2023-01-19T07:28:54.951Z,96246.31
2023-01-19T07:31:21.541Z,96237.38
2023-01-19T07:33:48.245Z,96242.00
2023-01-19T07:36:17.146Z,96244.50
2023-01-19T07:38:43.716Z,96253.22
2023-01-19T07:41:13.271Z,96249.63
2023-01-19T07:43:39.977Z,96252.06
2023-01-19T07:46:09.318Z,96244.78
2023-01-19T07:48:38.181Z,96255.69
2023-01-19T07:51:10.461Z,96249.41
2023-01-19T07:53:41.993Z,96251.28
2023-01-19T07:56:08.908Z,96259.03
2023-01-19T07:58:40.734Z,96261.69
2023-01-19T08:01:14.603Z,96270.22
2023-01-19T08:03:41.348Z,96263.09
2023-01-19T08:06:27.018Z,96276.03
2023-01-19T08:08:53.574Z,96279.94
2023-01-19T08:11:20.136Z,96277.91
2023-01-19T08:13:49.493Z,96286.72
2023-01-19T08:16:18.981Z,96283.69
2023-01-19T08:18:48.431Z,96286.78
2023-01-19T08:21:19.716Z,96297.63
2023-01-19T08:23:57.828Z,96290.13
2023-01-19T08:26:31.423Z,96298.41
2023-01-19T08:29:03.488Z,96289.72
2023-01-19T08:31:30.247Z,96291.97
2023-01-19T08:33:59.660Z,96298.81
2023-01-19T08:36:26.244Z,96293.13
2023-01-19T08:38:55.325Z,96304.88
2023-01-19T08:41:22.337Z,96303.84
2023-01-19T08:43:52.138Z,96300.13
2023-01-19T08:46:21.978Z,96299.81
2023-01-19T08:48:51.469Z,96296.75
2023-01-19T08:51:21.154Z,96300.13
2023-01-19T08:53:50.297Z,96299.34
2023-01-19T08:56:18.551Z,96301.78
2023-01-19T08:58:53.665Z,96311.06
2023-01-19T09:01:30.109Z,96312.81
2023-01-19T09:03:59.674Z,96310.22
2023-01-19T09:06:26.300Z,96317.16
2023-01-19T09:08:55.845Z,96313.09
2023-01-19T09:11:24.724Z,96308.16
2023-01-19T09:13:53.469Z,96304.38
2023-01-19T09:16:20.062Z,96309.50
2023-01-19T09:18:46.657Z,96305.59
2023-01-19T09:21:15.497Z,96295.69
2023-01-19T09:23:44.646Z,96288.78
2023-01-19T09:26:11.500Z,96290.69
2023-01-19T09:28:38.409Z,96285.28
2023-01-19T09:31:09.189Z,96296.31
2023-01-19T09:33:38.223Z,96292.69
2023-01-19T09:36:05.063Z,96293.75
2023-01-19T09:38:32.899Z,96286.53
2023-01-19T09:41:00.615Z,96286.19
2023-01-19T09:43:50.748Z,96299.84
2023-01-19T09:46:27.400Z,96305.00
2023-01-19T09:49:04.786Z,96294.72
2023-01-19T09:51:39.470Z,96292.84
2023-01-19T09:54:29.862Z,96293.50
2023-01-19T09:56:56.436Z,96296.03
2023-01-19T09:59:31.520Z,96296.06
2023-01-19T10:02:28.176Z,96292.59
2023-01-19T10:05:22.341Z,96287.03
2023-01-19T10:08:26.749Z,96288.75
2023-01-19T10:10:55.412Z,96290.13
2023-01-19T10:13:52.302Z,96289.47
2023-01-19T10:16:53.198Z,96284.59
2023-01-19T10:19:25.113Z,96281.78
2023-01-19T10:21:55.373Z,96277.91
2023-01-19T10:24:33.184Z,96276.59
2023-01-19T10:27:02.257Z,96270.88
2023-01-19T10:29:37.296Z,96268.53
2023-01-19T10:32:09.037Z,96273.28
2023-01-19T10:34:38.871Z,96266.56
2023-01-19T10:37:16.004Z,96266.00
2023-01-19T10:39:44.082Z,96261.81
2023-01-19T10:42:15.291Z,96260.19
2023-01-19T10:44:42.142Z,96259.06
2023-01-19T10:47:17.993Z,96267.63
2023-01-19T10:49:45.290Z,96265.03
2023-01-19T10:52:35.740Z,96261.41
2023-01-19T10:55:07.041Z,96261.59
2023-01-19T10:57:43.366Z,96251.22
2023-01-19T11:00:38.098Z,96260.28
2023-01-19T11:03:25.309Z,96258.41
2023-01-19T11:05:54.373Z,96255.97
2023-01-19T11:08:29.725Z,96249.41
2023-01-19T11:11:03.747Z,96248.81
2023-01-19T11:13:31.788Z,96244.22
2023-01-19T11:16:05.364Z,96244.91
2023-01-19T11:18:31.866Z,96248.22
2023-01-19T11:21:02.346Z,96244.53
2023-01-19T11:23:31.217Z,96249.59
2023-01-19T11:26:05.190Z,96248.22
2023-01-19T11:28:31.662Z,96235.06
2023-01-19T11:31:04.009Z,96240.84
2023-01-19T11:33:37.483Z,96242.31
2023-01-19T11:36:30.223Z,96236.38
2023-01-19T11:39:19.298Z,96233.66
2023-01-19T11:41:53.156Z,96229.09
2023-01-19T11:44:26.370Z,96230.34
2023-01-19T11:46:58.556Z,96226.22
2023-01-19T11:49:43.817Z,96227.34
2023-01-19T11:52:31.437Z,96222.28
2023-01-19T11:55:11.293Z,96228.56
2023-01-19T11:57:43.228Z,96226.94
2023-01-19T12:00:25.134Z,96223.47
2023-01-19T12:02:59.425Z,96222.31
2023-01-19T12:05:32.268Z,96230.72
2023-01-19T12:08:07.118Z,96223.16
2023-01-19T12:10:38.325Z,96219.84
2023-01-19T12:13:13.060Z,96226.38
2023-01-19T12:15:43.040Z,96222.25
2023-01-19T12:18:18.251Z,96231.88
2023-01-19T12:20:48.733Z,96223.91
2023-01-19T12:23:15.287Z,96221.22
2023-01-19T12:26:08.534Z,96225.50
2023-01-19T12:28:40.414Z,96225.47
2023-01-19T12:31:09.808Z,96216.72
2023-01-19T12:33:39.144Z,96213.06
2023-01-19T12:36:12.174Z,96215.44
2023-01-19T12:38:52.868Z,96219.94
2023-01-19T12:41:28.562Z,96224.72
2023-01-19T12:44:19.274Z,96222.19
2023-01-19T12:46:50.705Z,96222.09
2023-01-19T12:49:23.948Z,96225.16
2023-01-19T12:51:55.998Z,96216.03
2023-01-19T12:54:34.553Z,96213.34
2023-01-19T12:57:08.162Z,96216.06
2023-01-19T12:59:37.495Z,96217.63
2023-01-19T13:02:41.994Z,96216.84
2023-01-19T13:05:15.011Z,96210.03
2023-01-19T13:08:03.489Z,96206.97
2023-01-19T13:11:05.748Z,96206.22
2023-01-19T13:13:52.926Z,96207.00
2023-01-19T13:16:19.736Z,96202.03
2023-01-19T13:18:47.952Z,96203.19
2023-01-19T13:21:34.910Z,96202.09
2023-01-19T13:24:02.489Z,96206.22
2023-01-19T13:26:30.755Z,96203.16
2023-01-19T13:29:08.296Z,96205.84
2023-01-19T13:31:43.004Z,96204.72
2023-01-19T13:34:17.112Z,96208.53
2023-01-19T13:36:50.868Z,96199.31
2023-01-19T13:39:22.413Z,96198.59
2023-01-19T13:41:53.337Z,96204.66
2023-01-19T13:44:25.478Z,96199.69
2023-01-19T13:46:53.592Z,96195.53
2023-01-19T13:49:29.673Z,96191.69
2023-01-19T13:52:13.834Z,96187.13
2023-01-19T13:54:53.548Z,96195.16
2023-01-19T13:57:30.754Z,96194.78
2023-01-19T14:00:12.675Z,96193.25
2023-01-19T14:02:52.416Z,96198.94
2023-01-19T14:05:41.775Z,96195.53
2023-01-19T14:08:11.355Z,96200.06
2023-01-19T14:10:41.245Z,96197.78
2023-01-19T14:13:29.458Z,96191.72
2023-01-19T14:16:02.915Z,96202.41
2023-01-19T14:18:34.843Z,96192.09
2023-01-19T14:21:11.957Z,96198.19
2023-01-19T14:23:48.823Z,96190.50
2023-01-19T14:26:56.781Z,96197.00
2023-01-19T14:29:38.492Z,96190.91
2023-01-19T14:32:13.691Z,96190.50
2023-01-19T14:34:44.969Z,96189.72
2023-01-19T14:37:32.581Z,96189.75
2023-01-19T14:40:15.876Z,96191.63
2023-01-19T14:42:42.346Z,96183.25
2023-01-19T14:45:22.485Z,96180.94
2023-01-19T14:47:57.016Z,96191.97
2023-01-19T14:50:31.654Z,96185.06
2023-01-19T14:53:04.253Z,96186.63
2023-01-19T14:55:49.961Z,96184.69
2023-01-19T14:58:22.803Z,96185.06
2023-01-19T15:00:56.067Z,96183.16
2023-01-19T15:03:42.694Z,96182.72
2023-01-19T15:06:14.783Z,96185.75
2023-01-19T15:08:41.498Z,96184.19
2023-01-19T15:11:23.956Z,96184.94
2023-01-19T15:13:50.972Z,96189.50
2023-01-19T15:16:18.308Z,96187.56
2023-01-19T15:18:47.584Z,96186.72
2023-01-19T15:21:26.397Z,96194.28
2023-01-19T15:23:54.437Z,96187.03
2023-01-19T15:26:23.980Z,96188.09
2023-01-19T15:28:53.129Z,96185.03
2023-01-19T15:31:25.301Z,96187.31
2023-01-19T15:33:51.935Z,96191.81
2023-01-19T15:36:21.222Z,96186.91
2023-01-19T15:38:50.832Z,96184.94
2023-01-19T15:41:30.557Z,96180.41
2023-01-19T15:43:57.513Z,96180.00
2023-01-19T15:46:25.829Z,96185.63
2023-01-19T15:48:53.404Z,96179.06
2023-01-19T15:51:25.915Z,96179.94
2023-01-19T15:53:53.676Z,96182.66
2023-01-19T15:56:24.767Z,96178.72
2023-01-19T15:58:52.442Z,96181.97
2023-01-19T16:01:21.701Z,96181.38
2023-01-19T16:03:49.512Z,96181.59
2023-01-19T16:06:18.408Z,96175.81
2023-01-19T16:08:45.232Z,96176.25
2023-01-19T16:11:14.755Z,96173.59
2023-01-19T16:13:46.191Z,96176.53
2023-01-19T16:16:21.060Z,96173.25
2023-01-19T16:18:48.001Z,96178.56
2023-01-19T16:21:14.739Z,96177.44
2023-01-19T16:23:41.969Z,96171.72
2023-01-19T16:26:25.301Z,96177.38
2023-01-19T16:28:51.910Z,96174.09
2023-01-19T16:31:18.566Z,96178.38
2023-01-19T16:33:45.358Z,96180.28
2023-01-19T16:36:47.492Z,96178.94
2023-01-19T16:39:15.169Z,96178.59
2023-01-19T16:41:44.771Z,96171.53
2023-01-19T16:44:15.136Z,96170.75
2023-01-19T16:46:45.604Z,96173.41
2023-01-19T16:49:16.470Z,96171.84
2023-01-19T16:51:43.523Z,96177.81
2023-01-19T16:54:19.517Z,96166.06
2023-01-19T16:56:46.671Z,96170.59
2023-01-19T16:59:14.917Z,96164.84
2023-01-19T17:01:42.460Z,96165.81
2023-01-19T17:04:11.385Z,96158.59
2023-01-19T17:06:40.303Z,96163.44
2023-01-19T17:09:09.415Z,96160.75
2023-01-19T17:11:36.900Z,96163.78
2023-01-19T17:14:12.511Z,96160.88
2023-01-19T17:16:42.459Z,96160.53
2023-01-19T17:19:15.292Z,96164.66
2023-01-19T17:21:46.371Z,96163.06
2023-01-19T17:24:12.997Z,96167.97
2023-01-19T17:26:39.585Z,96163.44
2023-01-19T17:29:10.849Z,96162.94
2023-01-19T17:31:40.169Z,96158.66
2023-01-19T17:34:06.898Z,96163.91
2023-01-19T17:36:36.212Z,96158.56
2023-01-19T17:39:11.277Z,96160.84
2023-01-19T17:41:37.849Z,96151.00
2023-01-19T17:44:09.546Z,96149.81
2023-01-19T17:46:38.024Z,96157.34
2023-01-19T17:49:08.226Z,96151.63
2023-01-19T17:51:35.096Z,96153.81
2023-01-19T17:54:06.439Z,96153.06
2023-01-19T17:56:37.628Z,96157.88
2023-01-19T17:59:07.644Z,96159.00
2023-01-19T18:01:40.067Z,96157.00
2023-01-19T18:04:08.167Z,96157.75
2023-01-19T18:06:37.497Z,96156.88
2023-01-19T18:09:06.929Z,96156.53
2023-01-19T18:11:36.257Z,96148.84
2023-01-19T18:14:03.228Z,96148.72
2023-01-19T18:16:32.541Z,96155.06
2023-01-19T18:18:59.168Z,96156.50
2023-01-19T18:21:28.222Z,96152.72
2023-01-19T18:24:03.223Z,96152.84
2023-01-19T18:26:31.465Z,96137.41
2023-01-19T18:29:01.380Z,96137.69
2023-01-19T18:31:30.421Z,96136.84
2023-01-19T18:33:59.632Z,96147.88
2023-01-19T18:36:26.653Z,96136.44
2023-01-19T18:38:56.271Z,96136.72
2023-01-19T18:41:25.243Z,96137.03
2023-01-19T18:43:55.205Z,96133.94
2023-01-19T18:46:27.469Z,96135.69
2023-01-19T18:48:56.636Z,96134.75
2023-01-19T18:51:25.703Z,96144.16
2023-01-19T18:53:58.226Z,96136.03
2023-01-19T18:56:27.241Z,96134.16
2023-01-19T18:58:54.329Z,96137.09
2023-01-19T19:01:23.519Z,96133.34
2023-01-19T19:03:51.035Z,96133.13
2023-01-19T19:06:20.683Z,96128.66
2023-01-19T19:08:53.975Z,96135.47
2023-01-19T19:11:25.005Z,96132.41
2023-01-19T19:13:58.435Z,96130.81
2023-01-19T19:16:27.781Z,96126.00
2023-01-19T19:18:54.541Z,96124.31
2023-01-19T19:21:24.014Z,96129.19
2023-01-19T19:23:57.709Z,96127.31
2023-01-19T19:26:25.846Z,96134.25
2023-01-19T19:28:52.408Z,96131.84
2023-01-19T19:31:21.237Z,96132.50
2023-01-19T19:33:53.929Z,96132.69
2023-01-19T19:36:24.078Z,96128.97
2023-01-19T19:38:50.745Z,96129.97
2023-01-19T19:41:23.323Z,96124.94
2023-01-19T19:43:50.614Z,96119.56
2023-01-19T19:46:21.842Z,96124.53
2023-01-19T19:48:49.530Z,96127.50
2023-01-19T19:51:29.948Z,96130.03
2023-01-19T19:54:00.634Z,96132.59
2023-01-19T19:56:30.051Z,96131.91
2023-01-19T19:58:58.948Z,96129.69
2023-01-19T20:01:32.666Z,96133.69
2023-01-19T20:04:08.798Z,96134.47
2023-01-19T20:06:39.834Z,96129.63
2023-01-19T20:09:09.026Z,96127.34
2023-01-19T20:11:38.864Z,96134.50
2023-01-19T20:14:11.881Z,96128.09
2023-01-19T20:16:43.297Z,96128.00
2023-01-19T20:19:12.221Z,96123.97
2023-01-19T20:21:44.124Z,96127.06
2023-01-19T20:24:18.360Z,96128.88
2023-01-19T20:26:52.578Z,96130.56
2023-01-19T20:29:20.349Z,96134.69
2023-01-19T20:31:50.306Z,96138.88
2023-01-19T20:34:22.082Z,96144.69
2023-01-19T20:36:50.347Z,96143.44
2023-01-19T20:39:18.623Z,96146.06
2023-01-19T20:41:50.863Z,96146.31
2023-01-19T20:44:20.895Z,96155.72
2023-01-19T20:46:47.799Z,96156.81
2023-01-19T20:49:17.155Z,96158.53
2023-01-19T20:51:46.036Z,96153.88
2023-01-19T20:54:17.622Z,96157.28
2023-01-19T20:56:44.292Z,96164.97
2023-01-19T20:59:13.816Z,96165.28
2023-01-19T21:01:41.017Z,96164.50
2023-01-19T21:04:08.572Z,96156.66
2023-01-19T21:06:35.932Z,96159.81
2023-01-19T21:09:03.231Z,96163.16
2023-01-19T21:11:30.123Z,96162.56
2023-01-19T21:13:59.445Z,96160.97
2023-01-19T21:16:28.359Z,96164.34
2023-01-19T21:18:55.362Z,96159.75
2023-01-19T21:21:30.883Z,96166.31
2023-01-19T21:24:02.459Z,96179.06
2023-01-19T21:26:31.650Z,96172.88
2023-01-19T21:29:04.573Z,96185.78
2023-01-19T21:31:33.681Z,96182.47
2023-01-19T21:34:02.598Z,96178.13
2023-01-19T21:36:31.381Z,96182.53
2023-01-19T21:39:00.727Z,96184.28
2023-01-19T21:41:32.070Z,96178.44
2023-01-19T21:44:00.371Z,96175.88
2023-01-19T21:46:29.600Z,96176.72
2023-01-19T21:49:02.924Z,96181.38
2023-01-19T21:51:33.469Z,96185.72
2023-01-19T21:54:05.292Z,96193.91
2023-01-19T21:56:32.221Z,96197.22
2023-01-19T21:59:02.209Z,96196.94
2023-01-19T22:01:29.398Z,96205.34
2023-01-19T22:04:01.867Z,96200.13
2023-01-19T22:06:28.810Z,96203.69
2023-01-19T22:08:57.836Z,96207.28
2023-01-19T22:11:24.920Z,96203.19
2023-01-19T22:13:51.841Z,96203.63
2023-01-19T22:16:20.711Z,96204.84
2023-01-19T22:18:54.064Z,96212.56
2023-01-19T22:21:35.600Z,96216.91
2023-01-19T22:24:07.539Z,96219.03
2023-01-19T22:26:35.016Z,96231.56
2023-01-19T22:29:11.253Z,96232.25
2023-01-19T22:31:43.167Z,96225.75
2023-01-19T22:34:10.824Z,96229.66
2023-01-19T22:36:41.907Z,96237.56
2023-01-19T22:39:15.250Z,96234.03
2023-01-19T22:41:46.239Z,96237.34
2023-01-19T22:44:21.182Z,96237.28
2023-01-19T22:46:49.407Z,96239.94
2023-01-19T22:49:20.159Z,96237.47
2023-01-19T22:51:54.046Z,96241.78
2023-01-19T22:54:23.006Z,96244.00
2023-01-19T22:56:49.756Z,96247.06
2023-01-19T22:59:18.557Z,96250.69
2023-01-19T23:01:45.671Z,96244.88
2023-01-19T23:04:17.569Z,96250.31
2023-01-19T23:06:50.447Z,96250.31
2023-01-19T23:09:17.719Z,96259.09
2023-01-19T23:11:50.259Z,96251.16
2023-01-19T23:14:20.143Z,96250.94
2023-01-19T23:16:47.261Z,96255.91
2023-01-19T23:19:21.194Z,96259.34
2023-01-19T23:21:53.162Z,96263.19
2023-01-19T23:24:19.831Z,96262.19
2023-01-19T23:26:48.381Z,96269.13
2023-01-19T23:29:18.186Z,96267.59
2023-01-19T23:31:47.239Z,96264.94
2023-01-19T23:34:19.474Z,96265.38
2023-01-19T23:36:48.373Z,96255.34
2023-01-19T23:39:24.048Z,96268.91
2023-01-19T23:41:50.945Z,96270.69
2023-01-19T23:44:20.018Z,96265.72
2023-01-19T23:46:46.956Z,96266.38
2023-01-19T23:49:13.637Z,96268.47
2023-01-19T23:51:40.861Z,96281.25
2023-01-19T23:54:07.697Z,96282.34
2023-01-19T23:56:36.612Z,96286.19
2023-01-19T23:59:10.527Z,96289.38
